createdAt,value
2018-06-15T00:01:22.005Z,94.40
2018-06-15T00:03:53.007Z,94.40
2018-06-15T00:06:22.822Z,94.20
2018-06-15T00:08:52.379Z,94.20
2018-06-15T00:11:26.908Z,94.20
2018-06-15T00:13:57.214Z,94.00
2018-06-15T00:16:31.688Z,94.00
2018-06-15T00:21:32.512Z,93.90
2018-06-15T00:24:02.053Z,93.90
2018-06-15T00:26:32.085Z,93.90
2018-06-15T00:29:04.166Z,93.80
2018-06-15T00:31:36.946Z,93.80
2018-06-15T00:34:07.105Z,93.80
2018-06-15T00:36:36.554Z,93.70
2018-06-15T00:39:08.853Z,93.70
2018-06-15T00:41:38.829Z,93.70
2018-06-15T00:44:08.271Z,93.70
2018-06-15T00:46:37.702Z,93.60
2018-06-15T00:49:09.535Z,93.60
2018-06-15T00:51:39.130Z,93.50
2018-06-15T00:54:09.589Z,93.50
2018-06-15T00:57:50.598Z,93.50
2018-06-15T01:00:20.399Z,93.40
2018-06-15T01:02:49.814Z,93.90
2018-06-15T01:07:49.211Z,94.10
2018-06-15T01:10:18.691Z,94.00
2018-06-15T01:12:48.181Z,93.90
2018-06-15T01:15:18.055Z,93.80
2018-06-15T01:17:47.578Z,94.00
2018-06-15T01:20:24.334Z,93.80
2018-06-15T01:22:55.410Z,94.10
2018-06-15T01:25:37.003Z,94.10
2018-06-15T01:28:06.861Z,94.00
2018-06-15T01:30:36.310Z,94.00
2018-06-15T01:33:05.793Z,94.00
2018-06-15T01:40:06.217Z,94.40
2018-06-15T01:42:47.097Z,94.60
2018-06-15T01:45:16.619Z,94.80
2018-06-15T01:47:46.485Z,94.70
2018-06-15T01:50:16.300Z,94.90
2018-06-15T02:01:45.796Z,95.40
2018-06-15T02:04:15.606Z,95.70
2018-06-15T02:18:53.873Z,95.80
2018-06-15T02:21:23.593Z,95.80
2018-06-15T02:23:53.070Z,95.90
2018-06-15T02:26:33.139Z,95.90
2018-06-15T02:29:06.285Z,95.80
2018-06-15T02:31:40.299Z,95.70
2018-06-15T02:34:14.893Z,95.60
2018-06-15T02:36:50.351Z,95.30
2018-06-15T02:39:21.634Z,95.30
2018-06-15T02:41:53.494Z,95.20
2018-06-15T02:44:27.451Z,95.20
2018-06-15T02:47:00.653Z,95.00
2018-06-15T02:49:34.773Z,94.90
2018-06-15T02:52:04.278Z,94.90
2018-06-15T02:54:33.948Z,94.80
2018-06-15T02:57:07.457Z,94.80
2018-06-15T02:59:38.529Z,94.70
2018-06-15T03:02:12.446Z,94.70
2018-06-15T03:04:44.043Z,94.70
2018-06-15T03:07:21.219Z,94.70
2018-06-15T03:09:55.886Z,94.60
2018-06-15T03:12:30.205Z,94.50
2018-06-15T03:15:01.853Z,94.50
2018-06-15T03:17:34.377Z,94.40
2018-06-15T03:20:05.506Z,94.40
2018-06-15T03:22:35.288Z,94.30
2018-06-15T03:25:04.846Z,94.20
2018-06-15T03:27:34.600Z,94.20
2018-06-15T03:30:04.261Z,94.20
2018-06-15T03:32:33.723Z,94.30
2018-06-15T03:35:03.590Z,94.60
2018-06-15T03:37:34.646Z,94.50
2018-06-15T03:40:04.341Z,94.50
2018-06-15T03:45:15.415Z,94.60
2018-06-15T03:50:19.999Z,94.60
2018-06-15T03:52:50.138Z,94.70
2018-06-15T03:55:19.695Z,94.60
2018-06-15T03:57:49.235Z,94.50
2018-06-15T04:00:19.007Z,94.40
2018-06-15T04:02:48.513Z,94.40
2018-06-15T04:05:17.937Z,94.40
2018-06-15T04:07:47.776Z,94.10
2018-06-15T04:10:17.351Z,94.30
2018-06-15T04:12:47.311Z,94.30
2018-06-15T04:15:17.276Z,94.70
2018-06-15T04:17:51.170Z,94.60
2018-06-15T04:20:21.194Z,94.60
2018-06-15T04:22:57.008Z,94.50
2018-06-15T04:25:28.182Z,94.40
2018-06-15T04:30:35.880Z,94.40
2018-06-15T04:33:05.387Z,94.40
2018-06-15T04:35:34.843Z,94.40
2018-06-15T04:38:04.666Z,94.40
2018-06-15T04:40:34.103Z,94.30
2018-06-15T04:43:03.574Z,94.20
2018-06-15T04:45:33.299Z,94.40
2018-06-15T04:48:02.782Z,94.40
2018-06-15T04:50:37.608Z,94.30
2018-06-15T04:53:07.409Z,93.90
2018-06-15T04:55:45.149Z,94.00
2018-06-15T04:58:19.209Z,94.00
2018-06-15T05:00:57.246Z,93.60
2018-06-15T05:03:26.979Z,93.90
2018-06-15T05:05:56.428Z,93.90
2018-06-15T05:08:25.949Z,94.00
2018-06-15T05:10:55.659Z,94.00
2018-06-15T05:13:25.058Z,93.60
2018-06-15T05:15:54.530Z,93.50
2018-06-15T05:18:24.285Z,93.70
2018-06-15T05:20:53.715Z,93.80
2018-06-15T05:23:23.165Z,93.70
2018-06-15T05:25:52.936Z,93.90
2018-06-15T05:28:22.466Z,93.90
2018-06-15T05:30:51.975Z,94.20
2018-06-15T05:33:21.798Z,94.10
2018-06-15T05:35:51.576Z,94.00
2018-06-15T05:38:26.095Z,93.80
2018-06-15T05:40:55.904Z,93.70
2018-06-15T05:43:30.222Z,93.60
2018-06-15T05:46:07.684Z,93.60
2018-06-15T05:48:45.253Z,93.70
2018-06-15T05:51:19.738Z,93.60
2018-06-15T05:53:49.393Z,93.30
2018-06-15T05:56:18.806Z,93.50
2018-06-15T05:58:49.059Z,93.50
2018-06-15T06:01:18.513Z,93.40
2018-06-15T06:03:52.179Z,93.40
2018-06-15T06:06:22.589Z,93.50
2018-06-15T06:08:52.198Z,93.60
2018-06-15T06:11:21.723Z,93.50
2018-06-15T06:13:52.241Z,93.50
2018-06-15T06:16:32.160Z,93.20
2018-06-15T06:19:03.727Z,93.20
2018-06-15T06:21:41.712Z,93.40
2018-06-15T06:26:46.421Z,93.10
2018-06-15T06:29:15.924Z,92.80
2018-06-15T06:31:59.636Z,92.80
2018-06-15T06:34:33.599Z,92.60
2018-06-15T06:37:03.153Z,92.30
2018-06-15T06:39:32.607Z,91.70
2018-06-15T06:42:02.468Z,91.80
2018-06-15T06:44:31.852Z,91.90
2018-06-15T06:47:05.868Z,92.10
2018-06-15T06:49:35.862Z,92.20
2018-06-15T06:52:05.338Z,91.30
2018-06-15T06:54:34.745Z,91.20
2018-06-15T06:57:04.483Z,91.20
2018-06-15T06:59:38.405Z,91.20
2018-06-15T07:02:07.844Z,90.70
2018-06-15T07:04:37.482Z,90.50
2018-06-15T07:07:07.122Z,90.20
2018-06-15T07:09:37.191Z,90.50
2018-06-15T07:12:07.770Z,90.20
2018-06-15T07:14:44.491Z,90.40
2018-06-15T07:17:14.320Z,90.50
2018-06-15T07:19:44.065Z,90.30
2018-06-15T07:22:13.727Z,90.40
2018-06-15T07:24:45.776Z,89.80
2018-06-15T07:27:15.571Z,90.10
2018-06-15T07:29:45.647Z,89.60
2018-06-15T07:32:16.321Z,88.80
2018-06-15T07:34:45.936Z,88.40
2018-06-15T07:37:15.760Z,89.00
2018-06-15T07:39:45.533Z,86.00
2018-06-15T07:42:21.252Z,85.00
2018-06-15T07:44:51.573Z,87.50
2018-06-15T07:47:21.382Z,88.40
2018-06-15T07:49:51.246Z,88.50
2018-06-15T07:52:20.829Z,89.20
2018-06-15T07:54:50.738Z,89.50
2018-06-15T07:57:21.095Z,89.30
2018-06-15T07:59:51.842Z,89.50
2018-06-15T08:02:21.758Z,89.50
2018-06-15T08:04:57.962Z,89.00
2018-06-15T08:07:27.864Z,89.90
2018-06-15T08:09:57.356Z,88.50
2018-06-15T08:12:29.155Z,88.80
2018-06-15T08:15:18.073Z,88.50
2018-06-15T08:17:48.784Z,89.50
2018-06-15T08:20:27.008Z,89.30
2018-06-15T08:22:56.777Z,88.60
2018-06-15T08:25:26.284Z,87.00
2018-06-15T08:27:55.787Z,88.20
2018-06-15T08:30:29.891Z,87.80
2018-06-15T08:33:03.270Z,87.40
2018-06-15T08:35:39.420Z,86.30
2018-06-15T08:38:09.400Z,86.70
2018-06-15T08:40:38.870Z,86.20
2018-06-15T08:43:08.326Z,82.10
2018-06-15T08:45:37.969Z,83.90
2018-06-15T08:48:15.346Z,84.40
2018-06-15T08:53:37.717Z,83.50
2018-06-15T08:56:41.317Z,84.10
2018-06-15T08:59:14.410Z,85.00
2018-06-15T09:01:51.686Z,83.00
2018-06-15T09:04:29.148Z,83.50
2018-06-15T09:07:06.063Z,84.70
2018-06-15T09:09:38.125Z,82.00
2018-06-15T09:12:22.094Z,80.00
2018-06-15T09:15:00.011Z,81.80
2018-06-15T09:17:37.503Z,81.30
2018-06-15T09:20:18.244Z,78.90
2018-06-15T09:22:56.756Z,78.00
2018-06-15T09:25:33.000Z,79.10
2018-06-15T09:28:09.295Z,79.90
2018-06-15T09:30:41.508Z,78.60
2018-06-15T09:33:12.887Z,79.30
2018-06-15T09:35:52.019Z,76.40
2018-06-15T09:38:22.594Z,75.20
2018-06-15T09:40:55.573Z,76.00
2018-06-15T09:43:28.207Z,77.60
2018-06-15T09:46:07.132Z,75.70
2018-06-15T09:48:41.897Z,74.30
2018-06-15T09:51:31.616Z,74.10
2018-06-15T09:54:07.709Z,75.70
2018-06-15T09:56:40.645Z,75.00
2018-06-15T09:59:13.378Z,73.40
2018-06-15T10:01:47.434Z,74.70
2018-06-15T10:04:25.127Z,75.60
2018-06-15T10:09:58.958Z,75.30
2018-06-15T10:12:38.071Z,77.70
2018-06-15T10:15:08.785Z,77.00
2018-06-15T10:17:53.828Z,74.80
2018-06-15T10:23:18.800Z,77.10
2018-06-15T10:25:58.738Z,76.60
2018-06-15T10:34:48.086Z,74.30
2018-06-15T10:37:34.449Z,75.60
2018-06-15T10:40:11.733Z,74.80
2018-06-15T10:42:43.495Z,73.60
2018-06-15T10:45:29.142Z,71.30
2018-06-15T10:48:18.754Z,71.20
2018-06-15T10:53:50.646Z,73.00
2018-06-15T10:59:13.698Z,71.20
2018-06-15T11:01:43.470Z,71.50
2018-06-15T11:04:13.807Z,73.00
2018-06-15T11:06:44.287Z,70.10
2018-06-15T11:09:14.355Z,71.10
2018-06-15T11:11:44.514Z,70.10
2018-06-15T11:14:14.320Z,72.20
2018-06-15T11:16:44.441Z,72.30
2018-06-15T11:19:14.679Z,70.40
2018-06-15T11:21:45.616Z,68.20
2018-06-15T11:24:17.181Z,70.40
2018-06-15T11:26:48.822Z,70.60
2018-06-15T11:29:47.555Z,69.00
2018-06-15T11:32:24.875Z,67.80
2018-06-15T11:35:06.856Z,68.30
2018-06-15T11:37:39.326Z,68.50
2018-06-15T11:40:10.961Z,70.00
2018-06-15T11:42:41.877Z,69.30
2018-06-15T11:45:14.481Z,70.30
2018-06-15T11:47:47.355Z,68.60
2018-06-15T11:52:50.111Z,69.20
2018-06-15T11:55:21.797Z,68.10
2018-06-15T11:57:52.921Z,68.10
2018-06-15T12:00:22.845Z,71.20
2018-06-15T12:02:54.526Z,70.30
2018-06-15T12:05:24.204Z,70.50
2018-06-15T12:07:54.138Z,70.70
2018-06-15T12:10:25.234Z,71.10
2018-06-15T12:12:54.772Z,72.40
2018-06-15T12:15:25.769Z,70.00
2018-06-15T12:17:57.235Z,71.10
2018-06-15T12:20:31.141Z,71.50
2018-06-15T12:23:16.601Z,69.40
2018-06-15T12:25:51.676Z,70.70
2018-06-15T12:28:29.524Z,71.30
2018-06-15T12:31:00.505Z,71.70
2018-06-15T12:33:30.069Z,72.10
2018-06-15T12:36:12.396Z,73.20
2018-06-15T12:38:42.157Z,69.50
2018-06-15T12:41:14.215Z,69.50
2018-06-15T12:43:47.143Z,68.50
2018-06-15T12:46:19.923Z,68.30
2018-06-15T12:48:49.467Z,68.80
2018-06-15T12:51:27.197Z,69.60
2018-06-15T12:53:58.957Z,68.10
2018-06-15T12:56:34.595Z,66.60
2018-06-15T12:59:08.695Z,68.90
2018-06-15T13:04:14.681Z,64.60
2018-06-15T13:06:45.183Z,66.70
2018-06-15T13:09:14.789Z,62.50
2018-06-15T13:11:44.464Z,62.60
2018-06-15T13:14:31.125Z,65.90
2018-06-15T13:17:07.844Z,62.60
2018-06-15T13:19:37.691Z,60.00
2018-06-15T13:22:19.930Z,63.70
2018-06-15T13:24:52.672Z,60.00
2018-06-15T13:34:00.472Z,63.40
2018-06-15T13:36:38.587Z,60.70
2018-06-15T13:39:16.803Z,61.10
2018-06-15T13:41:46.404Z,60.70
2018-06-15T13:51:09.703Z,58.50
2018-06-15T14:17:01.603Z,59.80
2018-06-15T14:20:02.306Z,57.70
2018-06-15T14:22:51.101Z,58.60
2018-06-15T14:30:55.466Z,58.50
2018-06-15T14:33:27.645Z,59.40
2018-06-15T14:36:18.868Z,58.80
2018-06-15T15:11:00.694Z,59.30
2018-06-15T15:16:49.597Z,61.80
2018-06-15T15:19:36.132Z,59.00
2018-06-15T15:22:17.313Z,59.10
2018-06-15T15:25:12.827Z,59.80
2018-06-15T15:27:54.121Z,60.90
2018-06-15T15:30:29.107Z,58.70
2018-06-15T15:33:06.125Z,59.90
2018-06-15T15:35:43.397Z,60.50
2018-06-15T15:38:18.343Z,61.80
2018-06-15T15:40:51.024Z,60.80
2018-06-15T15:43:25.233Z,62.00
2018-06-15T15:46:07.042Z,60.50
2018-06-15T15:48:44.328Z,61.10
2018-06-15T15:51:18.248Z,64.70
2018-06-15T15:53:51.166Z,61.20
2018-06-15T15:56:23.617Z,60.60
2018-06-15T15:59:04.995Z,60.80
2018-06-15T16:01:39.373Z,61.00
2018-06-15T16:04:13.604Z,61.80
2018-06-15T16:06:45.672Z,61.00
2018-06-15T16:09:18.617Z,60.30
2018-06-15T16:18:58.351Z,60.60
2018-06-15T16:48:11.083Z,62.60
2018-06-15T16:51:11.103Z,63.10
2018-06-15T17:00:27.539Z,65.20
2018-06-15T17:03:24.976Z,64.40
2018-06-15T17:06:23.307Z,63.90
2018-06-15T17:18:58.420Z,64.50
2018-06-15T17:24:40.798Z,64.70
2018-06-15T17:31:00.475Z,65.30
2018-06-15T17:33:55.098Z,66.30
2018-06-15T17:40:28.920Z,65.80
2018-06-15T17:46:35.318Z,67.20
2018-06-15T17:49:47.633Z,67.40
2018-06-15T17:52:19.533Z,68.60
2018-06-15T17:54:51.409Z,67.80
2018-06-15T18:11:02.569Z,68.60
2018-06-15T18:16:54.468Z,68.30
2018-06-15T18:26:34.252Z,68.80
2018-06-15T19:18:28.576Z,72.20
2018-06-15T19:21:14.785Z,72.90
2018-06-15T19:27:22.593Z,73.20
2018-06-15T19:45:51.865Z,72.20
2018-06-15T19:48:48.608Z,73.50
2018-06-15T19:51:56.541Z,73.70
2018-06-15T20:04:16.697Z,73.70
2018-06-15T20:10:39.412Z,74.30
2018-06-15T20:23:00.088Z,75.90
2018-06-15T20:35:45.838Z,76.70
2018-06-15T20:42:07.810Z,76.20
2018-06-15T20:45:17.757Z,77.00
2018-06-15T20:51:02.838Z,76.80
2018-06-15T20:53:37.219Z,77.30
2018-06-15T20:58:50.542Z,76.40
2018-06-15T21:01:24.827Z,76.80
2018-06-15T21:04:03.299Z,77.20
2018-06-15T21:06:34.291Z,77.30
2018-06-15T21:09:11.865Z,77.10
2018-06-15T21:11:43.442Z,76.80
2018-06-15T21:14:24.535Z,76.30
2018-06-15T21:17:03.166Z,77.70
2018-06-15T21:19:34.652Z,76.90
2018-06-15T21:22:09.614Z,77.30
2018-06-15T21:27:44.925Z,78.30
2018-06-15T21:30:17.203Z,77.90
2018-06-15T21:32:49.508Z,78.30
2018-06-15T21:35:35.440Z,77.80
2018-06-15T21:38:06.230Z,78.50
2018-06-15T21:40:38.221Z,77.90
2018-06-15T21:43:13.418Z,77.90
2018-06-15T21:45:56.817Z,77.60
2018-06-15T21:48:39.198Z,78.00
2018-06-15T21:54:34.806Z,79.00
2018-06-15T21:57:07.077Z,79.30
2018-06-15T21:59:37.805Z,78.70
2018-06-15T22:14:44.735Z,79.00
2018-06-15T22:17:41.051Z,79.70
2018-06-15T22:23:28.169Z,79.90
2018-06-15T22:32:28.777Z,81.10
2018-06-15T22:35:37.801Z,81.00
2018-06-15T22:44:39.105Z,81.80
2018-06-15T22:53:31.214Z,83.20
2018-06-15T23:02:31.435Z,83.40
2018-06-15T23:05:02.495Z,83.30
2018-06-15T23:07:35.859Z,83.00
2018-06-15T23:10:06.730Z,82.60
2018-06-15T23:12:37.128Z,83.10
2018-06-15T23:15:06.743Z,82.30
2018-06-15T23:17:38.085Z,81.90
2018-06-15T23:20:08.363Z,82.20
2018-06-15T23:22:40.414Z,82.90
2018-06-15T23:25:10.369Z,83.40
2018-06-15T23:27:43.206Z,83.30
2018-06-15T23:30:13.261Z,82.60
2018-06-15T23:32:52.525Z,82.60
2018-06-15T23:35:26.184Z,83.00
2018-06-15T23:37:55.527Z,77.20
2018-06-15T23:44:14.334Z,76.60
2018-06-15T23:52:57.880Z,74.70
2018-06-15T23:55:40.684Z,76.80
